Time;durP1;ratioP1;P1;durP2;ratioP2;P2;SDS_P1;SDS_P2;PMS_P1;PMS_P2;Temp;Humidity;BMP_temperature;BMP_pressure;BME280_temperature;BME280_humidity;BME280_pressure;Samples;Min_cycle;Max_cycle;Signal;HPM_P1;HPM_P2
2023/10/01 00:02:19;;;;;;;15.43;6.57;;;;;;;10.36;100.00;99832.91;4992656;28;20038;-74
2023/10/01 00:04:44;;;;;;;15.90;6.43;;;;;;;10.39;100.00;99826.28;4993184;28;20022;-75
2023/10/01 00:07:11;;;;;;;13.65;6.70;;;;;;;10.24;100.00;99812.63;4992570;28;20038;-75
2023/10/01 00:09:37;;;;;;;13.57;6.18;;;;;;;10.31;100.00;99806.38;4993690;28;20034;-75
2023/10/01 00:12:02;;;;;;;16.23;6.60;;;;;;;10.18;100.00;99797.94;4994751;28;20015;-74
2023/10/01 00:14:27;;;;;;;16.45;6.95;;;;;;;10.24;100.00;99812.63;4993855;28;20077;-75
2023/10/01 00:16:53;;;;;;;20.20;5.72;;;;;;;10.17;100.00;99812.50;4988923;28;20509;-74
2023/10/01 00:19:18;;;;;;;13.18;5.28;;;;;;;10.16;100.00;99813.50;4994627;28;20029;-74
2023/10/01 00:21:44;;;;;;;13.20;5.60;;;;;;;10.07;100.00;99809.16;4992466;28;20525;-75
2023/10/01 00:24:09;;;;;;;13.90;5.78;;;;;;;10.04;100.00;99812.22;4984615;28;20018;-74
2023/10/01 00:26:36;;;;;;;16.27;6.13;;;;;;;9.96;100.00;99814.97;4989780;28;20030;-74
2023/10/01 00:29:01;;;;;;;15.93;5.80;;;;;;;9.93;100.00;99818.00;4993628;28;20104;-75
2023/10/01 00:31:26;;;;;;;13.80;5.80;;;;;;;9.88;100.00;99819.38;4995380;28;20069;-75
2023/10/01 00:33:52;;;;;;;15.00;6.43;;;;;;;9.92;100.00;99829.84;4992651;28;20482;-75
2023/10/01 00:36:17;;;;;;;18.00;7.13;;;;;;;10.02;100.00;99825.06;4992065;28;20085;-75
2023/10/01 00:38:43;;;;;;;15.10;6.60;;;;;;;9.95;100.00;99813.25;4986251;28;20112;-74
2023/10/01 00:41:09;;;;;;;15.80;7.30;;;;;;;9.89;100.00;99822.91;4990332;28;20026;-75
2023/10/01 00:43:35;;;;;;;16.58;6.88;;;;;;;9.87;100.00;99817.66;4990491;28;20036;-74
2023/10/01 00:46:01;;;;;;;16.50;6.47;;;;;;;9.83;100.00;99820.91;4989060;28;20070;-75
2023/10/01 00:48:28;;;;;;;20.17;7.60;;;;;;;9.80;100.00;99822.09;4982875;28;20042;-75
2023/10/01 00:50:57;;;;;;;15.68;6.55;;;;;;;9.87;100.00;99817.66;4986927;28;20490;-74
2023/10/01 00:53:22;;;;;;;15.63;6.60;;;;;;;9.90;100.00;99823.75;4993584;28;20022;-75
2023/10/01 00:55:48;;;;;;;11.27;5.68;;;;;;;9.83;100.00;99826.31;4993399;28;20044;-74
2023/10/01 00:58:15;;;;;;;15.30;6.13;;;;;;;9.76;100.00;99815.34;4997354;28;20030;-74
2023/10/01 01:00:42;;;;;;;13.35;5.55;;;;;;;9.75;100.00;99823.66;4989853;28;20137;-74
2023/10/01 01:03:09;;;;;;;12.55;5.18;;;;;;;9.74;100.00;99827.34;4986675;28;20497;-74
2023/10/01 01:05:37;;;;;;;12.73;5.38;;;;;;;9.59;100.00;99808.31;4991744;28;20023;-74
2023/10/01 01:08:10;;;;;;;16.53;5.87;;;;;;;9.54;100.00;99818.78;5001439;28;20030;-74
2023/10/01 01:10:40;;;;;;;15.63;5.93;;;;;;;9.52;100.00;99818.13;4990557;28;20040;-74
2023/10/01 01:13:06;;;;;;;11.15;5.35;;;;;;;9.53;100.00;99825.19;4982062;28;20129;-74
2023/10/01 01:15:35;;;;;;;17.13;5.55;;;;;;;9.56;100.00;99814.03;4992145;28;20557;-74
2023/10/01 01:18:06;;;;;;;13.27;5.63;;;;;;;9.56;100.00;99824.84;5027839;23;20056;-50
2023/10/01 01:20:36;;;;;;;18.40;6.13;;;;;;;9.51;100.00;99819.97;5029294;28;20411;-49
2023/10/01 01:23:06;;;;;;;14.70;6.43;;;;;;;9.44;100.00;99819.81;5021433;28;20021;-50
2023/10/01 01:25:33;;;;;;;19.23;6.80;;;;;;;9.41;100.00;99822.84;5034566;28;20030;-50
2023/10/01 01:27:59;;;;;;;19.42;7.25;;;;;;;9.34;100.00;99823.72;5025340;28;20029;-50
2023/10/01 01:30:26;;;;;;;18.92;7.32;;;;;;;9.25;100.00;99822.00;5025452;28;20037;-50
2023/10/01 01:32:53;;;;;;;16.48;7.20;;;;;;;9.16;100.00;99827.41;5037076;28;20022;-50
2023/10/01 01:35:27;;;;;;;15.85;6.93;;;;;;;9.17;100.00;99834.53;5026864;28;20024;-50
2023/10/01 01:37:58;;;;;;;15.93;6.70;;;;;;;9.15;100.00;99827.59;5027018;28;20397;-49
2023/10/01 01:40:31;;;;;;;16.00;7.57;;;;;;;9.13;100.00;99835.03;5019876;28;20083;-50
2023/10/01 01:43:03;;;;;;;19.55;6.75;;;;;;;9.15;100.00;99830.31;5014621;28;20029;-49
2023/10/01 01:45:33;;;;;;;17.85;6.75;;;;;;;9.17;100.00;99823.72;5023708;28;20021;-49
2023/10/01 01:48:02;;;;;;;18.17;7.53;;;;;;;9.20;100.00;99823.38;5014211;28;20052;-49
2023/10/01 01:50:27;;;;;;;22.42;8.80;;;;;;;9.23;100.00;99819.50;5017472;28;20029;-49
2023/10/01 01:52:58;;;;;;;15.82;8.25;;;;;;;9.21;100.00;99818.81;5017493;28;20029;-50
2023/10/01 01:55:29;;;;;;;25.25;9.23;;;;;;;9.20;100.00;99826.06;5035378;28;20021;-50
2023/10/01 01:58:15;;;;;;;22.30;9.50;;;;;;;9.25;100.00;99820.19;5023920;28;20026;-49
2023/10/01 02:03:26;;;;;;;20.58;8.48;;;;;;;9.21;100.00;99813.41;5024701;28;20091;-49
2023/10/01 02:05:52;;;;;;;16.42;7.03;;;;;;;9.24;100.00;99810.38;5035522;28;20112;-50
2023/10/01 02:08:24;;;;;;;22.70;7.90;;;;;;;9.28;100.00;99816.28;5021753;28;20511;-49
2023/10/01 02:10:59;;;;;;;18.58;8.27;;;;;;;9.26;100.00;99807.50;5015070;28;20389;-49
2023/10/01 02:13:26;;;;;;;20.13;7.88;;;;;;;9.16;100.00;99802.28;5018425;28;20384;-49
2023/10/01 02:15:53;;;;;;;16.92;8.18;;;;;;;9.15;100.00;99806.84;5027994;28;20056;-50
2023/10/01 02:18:20;;;;;;;16.95;7.80;;;;;;;9.14;100.00;99809.69;5037336;28;20033;-50
2023/10/01 02:20:51;;;;;;;19.60;7.72;;;;;;;9.17;100.00;99804.81;5025069;28;20022;-50
2023/10/01 02:23:17;;;;;;;20.65;8.23;;;;;;;9.15;100.00;99812.25;5028217;28;20056;-50
2023/10/01 02:25:45;;;;;;;15.63;6.43;;;;;;;9.06;100.00;99809.72;5017481;28;20496;-50
2023/10/01 02:28:15;;;;;;;14.48;6.85;;;;;;;8.94;100.00;99801.13;5015077;28;20492;-50
2023/10/01 02:30:42;;;;;;;13.05;5.97;;;;;;;8.89;100.00;99806.16;5023791;28;20040;-50
2023/10/01 02:33:17;;;;;;;20.13;5.80;;;;;;;8.81;100.00;99798.06;5024121;28;20076;-50
2023/10/01 02:35:49;;;;;;;14.80;5.80;;;;;;;8.81;100.00;99798.91;5021715;28;20037;-50
2023/10/01 02:41:02;;;;;;;16.20;6.43;;;;;;;8.84;100.00;99782.38;5017447;28;20110;-50
2023/10/01 02:43:34;;;;;;;19.33;6.20;;;;;;;8.83;100.00;99796.91;5020198;28;20034;-50
2023/10/01 02:46:11;;;;;;;14.70;5.97;;;;;;;8.79;100.00;99790.13;5035507;28;20113;-50
2023/10/01 02:48:40;;;;;;;20.60;6.22;;;;;;;8.66;100.00;99796.03;5033306;28;20060;-50
2023/10/01 02:51:14;;;;;;;15.05;5.55;;;;;;;8.68;100.00;99795.88;5022077;28;20026;-50
2023/10/01 02:54:03;;;;;;;18.42;7.03;;;;;;;8.59;100.00;99802.25;5027224;28;20103;-50
2023/10/01 02:56:33;;;;;;;16.50;6.70;;;;;;;8.60;100.00;99790.47;5016482;28;20092;-50
2023/10/01 02:59:14;;;;;;;17.05;6.68;;;;;;;8.59;100.00;99797.69;5041052;28;20549;-50
2023/10/01 03:01:47;;;;;;;16.75;5.88;;;;;;;8.64;100.00;99803.44;5020491;28;20476;-51
2023/10/01 03:04:16;;;;;;;15.70;6.50;;;;;;;8.66;100.00;99796.03;5025132;28;20491;-50
2023/10/01 03:06:54;;;;;;;16.27;5.78;;;;;;;8.66;100.00;99795.19;5039197;28;20124;-50
2023/10/01 03:09:31;;;;;;;20.70;6.45;;;;;;;8.65;100.00;99801.59;5020266;28;20067;-50
2023/10/01 03:12:24;;;;;;;17.73;6.70;;;;;;;8.54;100.00;99795.50;5026439;28;20056;-50
2023/10/01 03:14:59;;;;;;;13.90;5.95;;;;;;;8.46;100.00;99794.63;5023241;28;20037;-50
2023/10/01 03:17:35;;;;;;;17.67;6.53;;;;;;;8.33;100.00;99784.28;5016751;28;20034;-50
2023/10/01 03:20:19;;;;;;;15.80;6.40;;;;;;;8.34;100.00;99783.28;5022934;28;20029;-50
2023/10/01 03:22:52;;;;;;;19.27;5.93;;;;;;;8.31;100.00;99780.94;5021554;28;20043;-50
2023/10/01 03:25:28;;;;;;;15.00;5.40;;;;;;;8.30;100.00;99787.31;5020413;28;20018;-50
2023/10/01 03:28:01;;;;;;;15.50;5.95;;;;;;;8.30;100.00;99785.47;5029331;28;20025;-50
2023/10/01 03:30:32;;;;;;;15.13;6.03;;;;;;;8.38;100.00;99781.94;5024051;28;20051;-50
2023/10/01 03:33:16;;;;;;;14.85;5.72;;;;;;;8.37;100.00;99774.03;5021907;28;20108;-50
2023/10/01 03:35:47;;;;;;;13.32;5.82;;;;;;;8.29;100.00;99772.16;5021015;28;20504;-50
2023/10/01 03:38:14;;;;;;;16.13;6.38;;;;;;;8.23;100.00;99783.63;5014633;28;20029;-50
2023/10/01 03:43:31;;;;;;;15.88;6.07;;;;;;;8.13;100.00;99781.03;5028929;28;20095;-50
2023/10/01 03:46:31;;;;;;;15.70;5.60;;;;;;;8.09;100.00;99785.06;5027724;28;20037;-50
2023/10/01 03:48:58;;;;;;;13.63;6.35;;;;;;;8.04;100.00;99782.88;5030907;28;20099;-50
2023/10/01 03:51:52;;;;;;;19.97;6.50;;;;;;;8.04;100.00;99788.28;5018609;28;20104;-50
2023/10/01 03:54:51;;;;;;;14.63;6.13;;;;;;;8.05;100.00;99791.81;5021923;28;20358;-50
2023/10/01 03:57:11;;;;;;;11.80;5.50;;;;;;;7.97;100.00;99789.91;5017917;28;20072;-50
2023/10/01 03:59:37;;;;;;;15.57;6.72;;;;;;;8.00;100.00;99792.28;5021065;28;20029;-50
2023/10/01 04:02:26;;;;;;;13.55;6.55;;;;;;;8.00;100.00;99786.88;5042210;28;20029;-50
2023/10/01 04:04:57;;;;;;;14.68;6.80;;;;;;;8.07;100.00;99785.25;5017418;28;20024;-50
2023/10/01 04:07:45;;;;;;;13.20;5.85;;;;;;;8.06;100.00;99788.09;5017154;28;20337;-50
2023/10/01 04:10:19;;;;;;;12.60;5.50;;;;;;;8.14;100.00;99782.72;5024669;28;20037;-50
2023/10/01 04:12:48;;;;;;;18.27;5.95;;;;;;;8.25;100.00;99778.88;5023797;28;20111;-50
2023/10/01 04:15:27;;;;;;;13.48;6.38;;;;;;;8.19;100.00;99779.53;5018173;28;20022;-50
2023/10/01 04:20:48;;;;;;;14.25;6.03;;;;;;;8.00;100.00;99775.28;5017612;28;20385;-50
2023/10/01 04:23:29;;;;;;;15.40;5.95;;;;;;;7.87;100.00;99770.34;5020014;28;20132;-50
2023/10/01 04:26:04;;;;;;;13.55;6.15;;;;;;;7.93;100.00;99775.06;5025576;28;20050;-50
2023/10/01 04:28:54;;;;;;;18.50;6.93;;;;;;;7.93;100.00;99766.16;5028623;28;20029;-50
2023/10/01 04:31:42;;;;;;;16.88;6.90;;;;;;;7.95;100.00;99764.13;5046045;28;20021;-51
2023/10/01 04:34:11;;;;;;;21.77;7.25;;;;;;;7.95;100.00;99767.66;5022568;28;20049;-50
2023/10/01 04:36:42;;;;;;;14.07;7.07;;;;;;;7.97;100.00;99764.81;5019167;28;20021;-50
2023/10/01 04:39:08;;;;;;;21.80;7.00;;;;;;;7.92;100.00;99768.00;5018202;28;20072;-50
2023/10/01 04:41:34;;;;;;;13.90;6.60;;;;;;;7.99;100.00;99763.66;5019777;28;20120;-51
2023/10/01 04:44:06;;;;;;;16.10;6.88;;;;;;;7.94;100.00;99763.31;5023174;28;20175;-50
2023/10/01 04:46:37;;;;;;;14.02;5.57;;;;;;;7.93;100.00;99755.38;5031482;28;20026;-50
2023/10/01 04:49:08;;;;;;;16.75;6.32;;;;;;;7.90;100.00;99759.22;5030761;28;20044;-50
2023/10/01 04:51:45;;;;;;;12.90;5.38;;;;;;;7.97;100.00;99767.53;5022550;28;20154;-50
2023/10/01 04:54:17;;;;;;;16.42;6.22;;;;;;;7.88;100.00;99763.94;5030842;28;20357;-50
2023/10/01 04:56:44;;;;;;;18.60;6.10;;;;;;;7.79;100.00;99781.09;5022613;28;20026;-50
2023/10/01 04:59:10;;;;;;;12.13;5.72;;;;;;;7.77;100.00;99780.41;5033213;28;20112;-50
2023/10/01 05:01:35;;;;;;;13.68;5.70;;;;;;;7.74;100.00;99784.25;5025327;28;20170;-50
2023/10/01 05:04:01;;;;;;;13.85;5.47;;;;;;;7.68;100.00;99777.66;5022504;28;20105;-50
2023/10/01 05:06:27;;;;;;;11.80;5.70;;;;;;;7.64;100.00;99789.75;5019236;28;20064;-50
2023/10/01 05:08:56;;;;;;;14.75;5.75;;;;;;;7.74;100.00;99784.25;5023415;28;20044;-50
2023/10/01 05:11:22;;;;;;;14.37;6.60;;;;;;;7.83;100.00;99793.22;5019468;28;20049;-52
2023/10/01 05:13:58;;;;;;;17.88;6.53;;;;;;;7.86;100.00;99798.31;5029564;28;20288;-50
2023/10/01 05:16:26;;;;;;;13.85;5.90;;;;;;;7.84;100.00;99800.31;5030983;28;20034;-50
2023/10/01 05:19:13;;;;;;;12.90;5.47;;;;;;;7.81;100.00;99806.84;5015373;28;20103;-51
2023/10/01 05:21:49;;;;;;;17.10;5.97;;;;;;;7.74;100.00;99799.56;5039781;28;20029;-50
2023/10/01 05:24:34;;;;;;;16.30;5.70;;;;;;;7.74;100.00;99802.28;5018656;28;20116;-51
2023/10/01 05:27:08;;;;;;;11.63;5.82;;;;;;;7.75;100.00;99802.09;5020194;28;20024;-50
2023/10/01 05:29:34;;;;;;;16.63;6.25;;;;;;;7.79;100.00;99808.03;5018470;28;20116;-51
2023/10/01 05:32:01;;;;;;;18.65;6.93;;;;;;;7.90;100.00;99805.03;5013680;28;20034;-51
2023/10/01 05:34:28;;;;;;;15.85;6.63;;;;;;;7.98;100.00;99807.75;5025764;28;20055;-50
2023/10/01 05:37:08;;;;;;;12.57;5.78;;;;;;;8.08;100.00;99813.03;5022080;28;20091;-50
2023/10/01 05:39:55;;;;;;;14.80;6.43;;;;;;;8.15;100.00;99806.00;5022984;28;20381;-51
2023/10/01 05:42:22;;;;;;;15.38;5.90;;;;;;;8.28;100.00;99809.06;5015706;28;20163;-50
2023/10/01 05:44:50;;;;;;;15.40;6.25;;;;;;;8.44;100.00;99807.47;5013484;28;20496;-51
2023/10/01 05:47:16;;;;;;;13.20;5.63;;;;;;;8.60;100.00;99806.66;5043183;28;20083;-50
2023/10/01 05:49:49;;;;;;;10.18;5.20;;;;;;;8.82;100.00;99807.84;5026249;28;20032;-50
2023/10/01 05:52:17;;;;;;;12.73;5.85;;;;;;;8.95;100.00;99800.09;5014227;28;20022;-50
2023/10/01 05:54:53;;;;;;;14.07;5.38;;;;;;;9.26;100.00;99808.34;5023381;28;20029;-50
2023/10/01 05:57:21;;;;;;;16.77;5.50;;;;;;;9.54;100.00;99798.03;5020459;28;20069;-51
2023/10/01 06:00:00;;;;;;;12.93;5.25;;;;;;;9.98;100.00;99796.69;5018897;28;20120;-50
2023/10/01 06:02:47;;;;;;;15.05;5.43;;;;;;;11.81;100.00;99778.72;5017534;28;20033;-50
2023/10/01 06:05:32;;;;;;;14.90;4.43;;;;;;;13.89;100.00;99748.78;5012623;28;20083;-50
2023/10/01 06:08:12;;;;;;;12.60;5.15;;;;;;;14.66;100.00;99750.31;5022764;28;20040;-50
2023/10/01 06:10:47;;;;;;;10.23;4.35;;;;;;;15.21;100.00;99754.78;5019402;28;20051;-50
2023/10/01 06:13:13;;;;;;;11.07;4.22;;;;;;;16.51;100.00;99749.38;5019985;28;20033;-50
2023/10/01 06:15:39;;;;;;;11.57;4.40;;;;;;;17.74;100.00;99748.84;5023015;28;20017;-50
2023/10/01 06:18:05;;;;;;;14.25;3.88;;;;;;;18.67;100.00;99755.06;5036602;28;20092;-50
2023/10/01 06:20:33;;;;;;;15.50;4.45;;;;;;;19.26;100.00;99753.34;5020990;28;20473;-50
2023/10/01 06:22:59;;;;;;;10.95;4.93;;;;;;;18.73;100.00;99752.25;5022009;28;20033;-50
2023/10/01 06:25:40;;;;;;;11.18;4.63;;;;;;;19.03;100.00;99749.47;5016493;28;20393;-50
2023/10/01 06:28:07;;;;;;;16.50;5.55;;;;;;;19.75;100.00;99753.94;5023013;28;20036;-50
2023/10/01 06:30:34;;;;;;;12.57;3.92;;;;;;;19.20;100.00;99740.53;5027084;28;20025;-50
2023/10/01 06:33:00;;;;;;;12.68;4.50;;;;;;;16.69;100.00;99746.75;5027885;28;20077;-50
2023/10/01 06:35:26;;;;;;;10.43;4.85;;;;;;;15.82;100.00;99754.47;5013985;28;20064;-50
2023/10/01 06:37:53;;;;;;;17.77;4.70;;;;;;;15.93;100.00;99761.19;5021406;28;20060;-50
2023/10/01 06:40:31;;;;;;;11.95;4.40;;;;;;;16.18;100.00;99755.84;5014709;28;20442;-49
2023/10/01 06:43:00;;;;;;;12.48;5.10;;;;;;;16.67;100.00;99751.59;5024159;28;20388;-50
2023/10/01 06:45:42;;;;;;;14.70;5.13;;;;;;;17.53;100.00;99753.66;5021912;28;20041;-49
2023/10/01 06:48:09;;;;;;;10.82;4.50;;;;;;;17.72;100.00;99759.16;5018433;28;20037;-49
2023/10/01 06:50:37;;;;;;;9.63;4.30;;;;;;;18.49;100.00;99751.28;5019422;28;20030;-49
2023/10/01 06:53:03;;;;;;;10.43;4.93;;;;;;;20.20;100.00;99745.03;5039698;28;20452;-49
2023/10/01 06:55:32;;;;;;;8.82;4.82;;;;;;;21.61;nan;99755.31;5024295;28;20038;-49
2023/10/01 06:58:00;;;;;;;12.13;5.13;;;;;;;23.07;75.29;99766.75;5022510;28;20453;-50
2023/10/01 07:00:30;;;;;;;12.77;5.38;;;;;;;24.01;68.83;99761.66;5042740;28;20040;-50
2023/10/01 07:03:13;;;;;;;8.88;4.60;;;;;;;23.90;68.11;99762.72;5027974;28;20026;-50
2023/10/01 07:05:39;;;;;;;11.43;5.30;;;;;;;24.32;64.97;99764.56;5018744;28;20021;-50
2023/10/01 07:08:05;;;;;;;15.57;5.72;;;;;;;24.53;62.62;99769.09;5021141;28;20473;-50
2023/10/01 07:10:31;;;;;;;12.23;6.13;;;;;;;24.64;63.90;99759.72;5023747;28;20033;-50
2023/10/01 07:13:04;;;;;;;12.32;5.50;;;;;;;24.01;64.97;99769.94;5025503;28;20392;-50
2023/10/01 07:15:32;;;;;;;14.10;5.63;;;;;;;25.31;60.94;99765.38;5028353;28;20037;-50
2023/10/01 07:17:58;;;;;;;11.32;5.65;;;;;;;26.26;58.26;99736.91;5124622;23;20053;-56
2023/10/01 07:20:25;;;;;;;12.93;5.65;;;;;;;26.14;58.78;99767.72;5009662;28;20350;-48
2023/10/01 07:22:51;;;;;;;10.93;5.60;;;;;;;27.52;56.75;99771.66;5005583;28;20466;-48
2023/10/01 07:25:37;;;;;;;14.52;5.93;;;;;;;27.18;55.62;99768.88;5006816;28;20108;-48
2023/10/01 07:28:05;;;;;;;8.73;5.10;;;;;;;28.26;54.22;99777.84;5011269;28;20041;-48
2023/10/01 07:30:45;;;;;;;13.10;5.35;;;;;;;28.80;51.58;99773.00;5006222;28;20026;-49
2023/10/01 07:33:10;;;;;;;11.48;5.03;;;;;;;30.57;48.53;99774.88;5011226;28;20049;-49
2023/10/01 07:35:41;;;;;;;10.60;5.53;;;;;;;31.97;46.58;99768.44;5007530;28;20458;-49
2023/10/01 07:38:07;;;;;;;11.52;5.65;;;;;;;32.60;44.96;99778.38;5008959;28;20041;-48
2023/10/01 07:40:52;;;;;;;9.15;5.03;;;;;;;33.05;43.19;99774.50;5003105;28;20030;-48
2023/10/01 07:43:18;;;;;;;11.27;5.82;;;;;;;32.04;43.92;99769.63;5009313;28;20014;-48
2023/10/01 07:45:55;;;;;;;11.27;5.00;;;;;;;33.60;42.81;99776.59;5005676;28;20026;-48
2023/10/01 07:48:27;;;;;;;10.20;5.73;;;;;;;32.17;42.88;99775.44;5007916;28;20030;-48
2023/10/01 07:50:54;;;;;;;9.77;5.55;;;;;;;32.78;42.55;99782.06;5007254;28;20055;-49
2023/10/01 07:53:20;;;;;;;12.02;5.28;;;;;;;32.96;43.36;99778.09;4999817;28;20344;-48
2023/10/01 07:55:46;;;;;;;8.93;4.65;;;;;;;33.93;43.22;99781.63;5002788;28;20026;-49
2023/10/01 07:58:45;;;;;;;9.63;4.68;;;;;;;33.43;42.82;99776.59;5009054;28;20025;-49
2023/10/01 08:03:55;;;;;;;9.10;4.95;;;;;;;34.34;42.57;99771.72;5011357;28;20024;-49
2023/10/01 08:06:29;;;;;;;10.68;5.05;;;;;;;34.36;41.42;99777.84;5005150;28;20025;-49
2023/10/01 08:08:59;;;;;;;10.52;5.50;;;;;;;31.71;44.09;99771.09;5008105;28;20116;-49
2023/10/01 08:14:12;;;;;;;12.55;5.82;;;;;;;32.06;45.00;99778.50;5008674;28;20041;-48
2023/10/01 08:16:47;;;;;;;10.77;5.10;;;;;;;33.13;43.77;99782.09;5007116;28;20038;-49
2023/10/01 08:19:15;;;;;;;9.65;4.95;;;;;;;32.92;42.90;99790.28;4999743;28;20096;-49
2023/10/01 08:21:48;;;;;;;10.20;5.57;;;;;;;32.17;43.78;99781.84;5007302;28;20523;-48
2023/10/01 08:24:18;;;;;;;11.40;5.38;;;;;;;32.26;43.77;99779.09;5011066;28;20036;-48
2023/10/01 08:27:03;;;;;;;12.00;5.38;;;;;;;30.98;44.76;99782.38;5006642;28;20056;-47
2023/10/01 08:29:29;;;;;;;12.18;4.80;;;;;;;30.65;45.97;99785.31;5005277;28;20046;-48
2023/10/01 08:34:22;;;;;;;15.07;6.78;;;;;;;32.06;44.29;99784.09;5012002;28;20030;-49
2023/10/01 08:36:55;;;;;;;10.50;5.32;;;;;;;32.39;44.03;99780.94;5009014;28;20034;-48
2023/10/01 08:39:34;;;;;;;11.55;5.10;;;;;;;32.77;44.34;99785.16;5010881;28;20083;-48
2023/10/01 08:42:09;;;;;;;13.95;5.45;;;;;;;33.50;42.57;99788.16;5008500;28;20315;-49
2023/10/01 08:44:52;;;;;;;11.75;5.75;;;;;;;32.48;42.33;99779.00;5000068;28;20018;-48
2023/10/01 08:52:52;;;;;;;10.95;4.90;;;;;;;33.87;40.73;99783.78;5007103;28;20071;-49
2023/10/01 08:55:21;;;;;;;13.37;5.33;;;;;;;34.13;41.26;99777.28;5000593;28;20022;-49
2023/10/01 08:57:46;;;;;;;11.32;5.32;;;;;;;34.50;40.23;99775.59;5000960;28;20027;-49
2023/10/01 09:00:20;;;;;;;10.88;5.45;;;;;;;34.55;40.24;99772.59;5000304;28;20044;-49
2023/10/01 09:03:07;;;;;;;10.65;5.18;;;;;;;33.88;40.77;99773.38;5004868;28;20034;-49
2023/10/01 09:05:34;;;;;;;11.00;5.20;;;;;;;33.60;41.35;99776.59;5009126;28;20123;-48
2023/10/01 09:08:26;;;;;;;11.10;5.53;;;;;;;32.84;42.74;99777.09;5004444;28;20033;-49
2023/10/01 09:10:53;;;;;;;14.27;5.28;;;;;;;34.00;40.92;99767.88;5009014;28;20025;-49
2023/10/01 09:13:22;;;;;;;11.13;4.95;;;;;;;33.55;41.95;99779.59;5003508;28;20034;-51
2023/10/01 09:15:53;;;;;;;;;;;;;;;33.77;40.93;99778.53;5004780;28;20023;-49
2023/10/01 09:18:22;;;;;;;10.50;5.15;;;;;;;33.90;40.69;99773.88;5010860;28;19940;-49
2023/10/01 09:23:55;;;;;;;10.18;5.00;;;;;;;33.17;42.28;99771.88;5010748;28;20034;-48
2023/10/01 09:26:53;;;;;;;10.52;5.07;;;;;;;35.49;40.39;99758.13;5000007;28;20072;-48
2023/10/01 09:29:23;;;;;;;15.82;4.50;;;;;;;36.02;38.15;99769.63;5010652;28;20120;-48
2023/10/01 09:31:59;;;;;;;10.93;5.05;;;;;;;34.95;38.93;99766.53;5008942;28;20036;-49
2023/10/01 09:34:46;;;;;;;9.80;5.07;;;;;;;35.65;38.48;99771.56;5005988;28;20022;-49
2023/10/01 09:37:11;;;;;;;11.00;5.30;;;;;;;34.07;40.28;99771.03;5009856;28;20034;-48
2023/10/01 09:39:41;;;;;;;11.05;5.05;;;;;;;34.81;39.89;99757.56;5007500;28;20053;-49
2023/10/01 09:42:25;;;;;;;12.35;5.30;;;;;;;35.31;39.01;99754.66;5007482;28;20033;-48
2023/10/01 09:45:09;;;;;;;12.70;5.00;;;;;;;35.11;39.57;99759.16;5000711;28;20030;-48
2023/10/01 09:47:35;;;;;;;8.40;5.18;;;;;;;35.70;38.97;99751.63;5005534;28;20034;-48
2023/10/01 09:50:04;;;;;;;10.00;4.85;;;;;;;36.59;37.65;99751.00;5007220;28;20026;-48
2023/10/01 09:52:48;;;;;;;10.95;5.40;;;;;;;35.80;38.46;99739.94;5003174;28;20026;-48
2023/10/01 09:55:26;;;;;;;13.27;5.25;;;;;;;33.97;39.78;99748.91;5011229;28;20022;-48
2023/10/01 09:57:56;;;;;;;12.13;5.07;;;;;;;34.75;39.87;99748.50;5011491;28;20077;-48
2023/10/01 10:00:39;;;;;;;9.98;4.50;;;;;;;35.49;39.04;99741.22;5008319;28;20504;-48
2023/10/01 10:03:11;;;;;;;12.35;4.93;;;;;;;36.95;36.97;99733.16;5009046;28;20073;-48
2023/10/01 10:05:40;;;;;;;10.77;4.93;;;;;;;37.88;35.66;99734.94;5009248;28;20018;-48
2023/10/01 10:08:15;;;;;;;12.18;4.70;;;;;;;36.53;37.25;99729.84;5007600;28;20104;-48
2023/10/01 10:10:49;;;;;;;9.38;4.18;;;;;;;36.77;37.11;99724.19;5002576;28;20508;-48
2023/10/01 10:13:36;;;;;;;9.52;5.15;;;;;;;37.45;36.83;99733.81;5008688;28;20121;-48
2023/10/01 10:16:33;;;;;;;7.20;4.10;;;;;;;38.68;35.42;99739.34;5002963;28;20037;-49
2023/10/01 10:19:16;;;;;;;9.35;4.70;;;;;;;39.60;34.26;99721.84;5003680;28;20053;-49
2023/10/01 10:24:32;;;;;;;7.95;4.38;;;;;;;40.49;33.57;99716.88;5005678;28;20115;-49
2023/10/01 10:27:09;;;;;;;8.32;4.60;;;;;;;41.83;31.83;99716.03;5011164;28;20489;-49
2023/10/01 10:29:47;;;;;;;9.85;4.03;;;;;;;40.42;32.04;99711.09;5005007;28;20055;-49
2023/10/01 10:32:16;;;;;;;9.30;4.47;;;;;;;39.06;33.53;99717.13;5010387;28;20037;-49
2023/10/01 10:35:03;;;;;;;8.15;3.80;;;;;;;37.91;34.37;99708.78;5005597;28;20029;-49
2023/10/01 10:38:09;;;;;;;7.45;4.00;;;;;;;38.12;34.87;99714.19;5002615;28;20030;-49
2023/10/01 10:40:27;;;;;;;;;;;;;;;36.58;36.11;99707.09;5011572;28;20386;-48
2023/10/01 10:42:58;;;;;;;8.68;3.83;;;;;;;37.07;34.15;99718.22;5011172;28;19964;-49
2023/10/01 10:45:31;;;;;;;8.02;4.10;;;;;;;38.35;33.51;99703.81;5009468;28;20057;-49
2023/10/01 10:48:03;;;;;;;7.78;3.72;;;;;;;39.44;32.37;99710.63;5014050;28;20492;-49
2023/10/01 10:50:50;;;;;;;7.38;4.32;;;;;;;37.88;32.48;99716.00;5013231;28;20034;-49
2023/10/01 10:53:15;;;;;;;7.45;4.03;;;;;;;36.25;34.25;99713.69;5008222;28;20088;-49
2023/10/01 10:56:00;;;;;;;8.60;4.00;;;;;;;36.93;33.78;99710.13;5007064;28;20030;-49
2023/10/01 10:58:31;;;;;;;9.00;4.28;;;;;;;38.56;32.15;99700.69;5004905;28;20045;-49
2023/10/01 11:01:15;;;;;;;7.90;4.13;;;;;;;38.12;32.21;99703.72;5009446;28;20034;-49
2023/10/01 11:03:44;;;;;;;8.13;4.05;;;;;;;38.89;32.00;99698.59;5013602;28;20041;-49
2023/10/01 11:06:17;;;;;;;8.73;4.22;;;;;;;38.77;31.69;99696.69;5014351;28;20026;-49
2023/10/01 11:08:50;;;;;;;7.75;4.03;;;;;;;38.27;32.17;99707.69;5007909;28;20477;-49
2023/10/01 11:11:20;;;;;;;8.18;4.25;;;;;;;37.24;33.61;99695.34;5008713;28;20496;-49
2023/10/01 11:13:46;;;;;;;9.02;4.35;;;;;;;37.12;32.76;99703.84;5012437;28;20396;-49
2023/10/01 11:16:15;;;;;;;8.45;3.95;;;;;;;37.91;34.02;99697.50;5004589;28;20040;-49
2023/10/01 11:18:44;;;;;;;8.75;4.30;;;;;;;40.02;30.63;99692.63;5007969;28;20047;-49
2023/10/01 11:21:13;;;;;;;8.10;4.70;;;;;;;40.49;31.22;99692.16;5011588;28;20026;-49
2023/10/01 11:23:39;;;;;;;9.90;4.85;;;;;;;39.03;30.26;99686.75;5008089;28;20365;-49
2023/10/01 11:26:25;;;;;;;10.10;5.10;;;;;;;36.66;33.63;99677.94;5013406;28;20032;-48
2023/10/01 11:28:51;;;;;;;8.20;4.43;;;;;;;39.14;31.40;99674.44;5004466;28;20381;-49
2023/10/01 11:31:24;;;;;;;6.97;4.32;;;;;;;40.40;31.34;99679.44;5006421;28;20280;-49
2023/10/01 11:34:03;;;;;;;9.43;5.00;;;;;;;40.93;29.57;99679.38;5008790;28;20034;-49
2023/10/01 11:36:38;;;;;;;10.32;4.93;;;;;;;39.61;29.85;99678.97;5000610;28;20038;-48
2023/10/01 11:39:04;;;;;;;9.77;5.22;;;;;;;38.35;32.14;99674.75;5012232;28;20030;-49
2023/10/01 11:41:41;;;;;;;10.00;4.88;;;;;;;37.21;31.70;99670.66;5013206;28;20472;-48
2023/10/01 11:44:08;;;;;;;8.37;4.60;;;;;;;36.50;33.03;99668.53;5008932;28;20081;-49
2023/10/01 11:46:38;;;;;;;13.80;5.50;;;;;;;38.30;31.56;99666.56;5011556;28;20462;-49
2023/10/01 11:49:08;;;;;;;11.45;5.65;;;;;;;38.98;30.40;99657.56;5013301;28;20046;-48
2023/10/01 11:51:54;;;;;;;11.13;5.43;;;;;;;37.99;31.66;99634.38;5007325;28;20044;-49
2023/10/01 11:54:52;;;;;;;10.35;5.32;;;;;;;37.90;31.72;99651.47;5012577;28;20033;-48
2023/10/01 11:57:25;;;;;;;10.82;5.60;;;;;;;36.55;32.04;99648.56;5025269;28;20033;-49
2023/10/01 11:59:56;;;;;;;12.05;5.43;;;;;;;37.63;31.48;99636.28;5013682;28;20493;-48
2023/10/01 12:02:26;;;;;;;11.48;5.25;;;;;;;37.83;31.20;99633.53;5006493;28;20018;-49
2023/10/01 12:04:57;;;;;;;10.65;4.88;;;;;;;38.02;31.56;99629.97;5008651;28;20057;-48
2023/10/01 12:07:26;;;;;;;11.30;5.40;;;;;;;36.63;32.29;99630.72;5012002;28;20405;-48
2023/10/01 12:09:54;;;;;;;9.80;5.03;;;;;;;36.32;32.66;99625.72;5009600;28;20481;-48
2023/10/01 12:12:39;;;;;;;9.70;5.13;;;;;;;37.37;31.88;99624.72;5012450;28;20121;-49
2023/10/01 12:17:52;;;;;;;10.10;5.47;;;;;;;38.74;30.07;99606.94;5009511;28;20084;-49
2023/10/01 12:20:28;;;;;;;9.95;5.18;;;;;;;37.75;31.13;99601.47;5010229;28;20925;-48
2023/10/01 12:23:13;;;;;;;8.75;4.82;;;;;;;36.06;32.51;99606.38;5011064;28;20466;-49
2023/10/01 12:25:57;;;;;;;8.55;4.43;;;;;;;36.91;33.07;99608.13;5004624;28;20049;-49